createdAt,value
2019-05-19T00:00:52.846Z,99.90
2019-05-19T00:03:21.483Z,99.90
2019-05-19T00:05:50.029Z,99.90
2019-05-19T00:08:18.572Z,99.90
2019-05-19T00:10:47.215Z,99.90
2019-05-19T00:13:15.815Z,99.90
2019-05-19T00:15:44.356Z,99.90
2019-05-19T00:18:12.981Z,99.90
2019-05-19T00:20:41.600Z,99.90
2019-05-19T00:23:10.227Z,99.90
2019-05-19T00:25:38.837Z,99.90
2019-05-19T00:28:07.471Z,99.90
2019-05-19T00:30:36.021Z,99.90
2019-05-19T00:33:04.643Z,99.90
2019-05-19T00:35:33.649Z,99.90
2019-05-19T00:38:02.201Z,99.90
2019-05-19T00:40:30.831Z,99.90
2019-05-19T00:42:59.640Z,99.90
2019-05-19T00:45:28.339Z,99.90
2019-05-19T00:47:57.022Z,99.90
2019-05-19T00:50:25.643Z,99.90
2019-05-19T00:52:54.247Z,99.90
2019-05-19T00:55:22.979Z,99.90
2019-05-19T00:57:51.951Z,99.90
2019-05-19T01:00:21.495Z,99.90
2019-05-19T01:02:50.062Z,99.90
2019-05-19T01:05:20.705Z,99.90
2019-05-19T01:07:48.901Z,99.90
2019-05-19T01:10:17.582Z,99.90
2019-05-19T01:12:46.205Z,99.90
2019-05-19T01:15:14.985Z,99.90
2019-05-19T01:17:43.526Z,99.90
2019-05-19T01:20:12.731Z,99.90
2019-05-19T01:22:41.413Z,99.90
2019-05-19T01:25:10.403Z,99.90
2019-05-19T01:27:38.959Z,99.90
2019-05-19T01:30:09.828Z,99.90
2019-05-19T01:32:38.451Z,99.90
2019-05-19T01:35:07.364Z,99.90
2019-05-19T01:37:36.040Z,99.90
2019-05-19T01:40:06.908Z,99.90
2019-05-19T01:42:35.903Z,99.90
2019-05-19T01:45:07.090Z,99.90
2019-05-19T01:47:35.785Z,99.90
2019-05-19T01:50:22.484Z,99.90
2019-05-19T01:52:37.405Z,99.90
2019-05-19T01:55:09.082Z,99.90
2019-05-19T01:57:37.716Z,99.90
2019-05-19T02:00:10.304Z,99.90
2019-05-19T02:02:38.918Z,99.90
2019-05-19T02:05:08.703Z,99.90
2019-05-19T02:07:37.400Z,99.90
2019-05-19T02:10:10.203Z,99.90
2019-05-19T02:12:38.792Z,99.90
2019-05-19T02:15:09.341Z,99.90
2019-05-19T02:17:37.909Z,99.90
2019-05-19T02:20:07.983Z,99.90
2019-05-19T02:22:36.598Z,99.90
2019-05-19T02:25:06.869Z,99.90
2019-05-19T02:27:35.551Z,99.90
2019-05-19T02:30:08.573Z,99.90
2019-05-19T02:32:37.189Z,99.90
2019-05-19T02:35:06.977Z,99.90
2019-05-19T02:37:35.488Z,99.90
2019-05-19T02:40:05.857Z,99.90
2019-05-19T02:42:37.022Z,99.90
2019-05-19T02:45:07.751Z,99.90
2019-05-19T02:47:37.733Z,99.90
2019-05-19T02:50:07.517Z,99.90
2019-05-19T02:52:38.258Z,99.90
2019-05-19T02:55:07.796Z,99.90
2019-05-19T02:57:37.706Z,99.90
2019-05-19T03:00:08.965Z,99.90
2019-05-19T03:02:37.589Z,99.90
2019-05-19T03:05:06.494Z,99.90
2019-05-19T03:07:35.092Z,99.90
2019-05-19T03:10:05.538Z,99.90
2019-05-19T03:12:34.262Z,99.90
2019-05-19T03:15:02.865Z,99.90
2019-05-19T03:17:31.572Z,99.90
2019-05-19T03:20:00.113Z,99.90
2019-05-19T03:22:28.686Z,99.90
2019-05-19T03:24:57.208Z,99.90
2019-05-19T03:27:25.863Z,99.90
2019-05-19T03:29:56.068Z,99.90
2019-05-19T03:32:31.900Z,99.90
2019-05-19T03:35:00.477Z,99.90
2019-05-19T03:37:29.053Z,99.90
2019-05-19T03:39:57.649Z,99.90
2019-05-19T03:42:26.272Z,99.90
2019-05-19T03:44:54.908Z,99.90
2019-05-19T03:47:23.469Z,99.90
2019-05-19T03:49:52.251Z,99.90
2019-05-19T03:52:20.801Z,99.90
2019-05-19T03:54:49.445Z,99.90
2019-05-19T03:57:17.992Z,99.90
2019-05-19T03:59:46.570Z,99.90
2019-05-19T04:02:15.130Z,99.90
2019-05-19T04:04:43.754Z,99.90
2019-05-19T04:07:12.359Z,99.90
2019-05-19T04:09:40.936Z,99.90
2019-05-19T04:12:09.485Z,99.90
2019-05-19T04:14:38.031Z,99.90
2019-05-19T04:17:06.593Z,99.90
2019-05-19T04:19:35.142Z,99.90
2019-05-19T04:22:03.852Z,99.90
2019-05-19T04:24:33.451Z,99.90
2019-05-19T04:27:02.012Z,99.90
2019-05-19T04:29:30.586Z,99.90
2019-05-19T04:31:59.213Z,99.90
2019-05-19T04:34:27.842Z,99.90
2019-05-19T04:36:56.468Z,99.90
2019-05-19T04:39:25.016Z,99.90
2019-05-19T04:41:53.574Z,99.90
2019-05-19T04:44:22.120Z,99.90
2019-05-19T04:46:50.693Z,99.90
2019-05-19T04:49:19.238Z,99.90
2019-05-19T04:52:05.185Z,99.90
2019-05-19T04:54:18.069Z,99.90
2019-05-19T04:56:46.648Z,99.90
2019-05-19T04:59:15.221Z,99.90
2019-05-19T05:01:43.824Z,99.90
2019-05-19T05:04:12.454Z,99.90
2019-05-19T05:06:40.980Z,99.90
2019-05-19T05:09:09.601Z,99.90
2019-05-19T05:11:38.155Z,99.90
2019-05-19T05:14:06.779Z,99.90
2019-05-19T05:16:35.320Z,99.90
2019-05-19T05:19:04.023Z,99.90
2019-05-19T05:21:32.589Z,99.90
2019-05-19T05:24:01.129Z,99.90
2019-05-19T05:26:29.729Z,99.90
2019-05-19T05:28:58.313Z,99.90
2019-05-19T05:31:26.919Z,99.90
2019-05-19T05:33:55.497Z,99.90
2019-05-19T05:36:24.095Z,99.90
2019-05-19T05:38:52.720Z,99.90
2019-05-19T05:41:21.253Z,99.90
2019-05-19T05:43:49.783Z,99.90
2019-05-19T05:46:18.419Z,99.90
2019-05-19T05:48:46.989Z,99.90
2019-05-19T05:51:15.548Z,99.90
2019-05-19T05:53:44.083Z,99.90
2019-05-19T05:56:12.708Z,99.90
2019-05-19T05:58:41.331Z,99.90
2019-05-19T06:01:09.900Z,99.90
2019-05-19T06:03:38.596Z,99.90
2019-05-19T06:06:07.174Z,99.90
2019-05-19T06:08:35.787Z,99.90
2019-05-19T06:11:04.419Z,99.90
2019-05-19T06:13:32.956Z,99.90
2019-05-19T06:16:01.588Z,99.90
2019-05-19T06:18:30.051Z,99.90
2019-05-19T06:20:58.675Z,99.90
2019-05-19T06:23:27.258Z,99.90
2019-05-19T06:25:55.798Z,99.90
2019-05-19T06:28:24.421Z,99.90
2019-05-19T06:30:52.950Z,99.90
2019-05-19T06:33:21.522Z,99.90
2019-05-19T06:35:50.117Z,99.90
2019-05-19T06:38:18.747Z,99.90
2019-05-19T06:40:47.285Z,99.90
2019-05-19T06:43:15.840Z,99.90
2019-05-19T06:45:44.448Z,99.90
2019-05-19T06:48:13.008Z,99.90
2019-05-19T06:50:42.637Z,99.90
2019-05-19T06:53:14.433Z,99.90
2019-05-19T06:55:41.528Z,99.90
2019-05-19T06:58:10.093Z,99.90
2019-05-19T07:00:38.696Z,99.90
2019-05-19T07:03:07.397Z,99.90
2019-05-19T07:05:35.948Z,99.90
2019-05-19T07:08:04.507Z,99.90
2019-05-19T07:10:33.106Z,99.90
2019-05-19T07:13:01.664Z,99.90
2019-05-19T07:15:30.273Z,99.90
2019-05-19T07:17:58.832Z,99.90
2019-05-19T07:20:27.380Z,99.90
2019-05-19T07:22:56.024Z,99.90
2019-05-19T07:25:24.628Z,99.90
2019-05-19T07:27:53.180Z,99.90
2019-05-19T07:30:21.791Z,99.90
2019-05-19T07:32:50.355Z,99.90
2019-05-19T07:35:19.019Z,99.90
2019-05-19T07:37:47.575Z,99.90
2019-05-19T07:40:16.265Z,99.90
2019-05-19T07:42:44.825Z,99.90
2019-05-19T07:45:13.906Z,99.90
2019-05-19T07:47:42.451Z,99.90
2019-05-19T07:50:11.143Z,99.90
2019-05-19T07:52:39.730Z,99.90
2019-05-19T07:55:08.382Z,99.90
2019-05-19T07:57:36.912Z,99.90
2019-05-19T08:00:09.491Z,99.90
2019-05-19T08:02:38.116Z,99.90
2019-05-19T08:05:06.813Z,99.90
2019-05-19T08:07:35.371Z,99.90
2019-05-19T08:10:05.962Z,99.90
2019-05-19T08:12:34.571Z,99.90
2019-05-19T08:15:04.285Z,99.90
2019-05-19T08:17:32.887Z,99.90
2019-05-19T08:20:01.453Z,99.90
2019-05-19T08:22:30.072Z,99.90
2019-05-19T08:24:58.628Z,99.90
2019-05-19T08:27:27.161Z,99.90
2019-05-19T08:29:55.770Z,99.90
2019-05-19T08:32:24.272Z,99.90
2019-05-19T08:34:52.884Z,99.90
2019-05-19T08:37:21.524Z,99.90
2019-05-19T08:39:50.074Z,99.90
2019-05-19T08:42:18.687Z,99.90
2019-05-19T08:44:47.230Z,98.90
2019-05-19T08:47:15.784Z,98.60
2019-05-19T08:49:44.336Z,99.70
2019-05-19T08:52:12.893Z,99.10
2019-05-19T08:54:41.485Z,97.80
2019-05-19T08:57:10.116Z,98.30
2019-05-19T08:59:38.663Z,99.40
2019-05-19T09:02:07.281Z,99.60
2019-05-19T09:04:35.812Z,99.20
2019-05-19T09:07:04.443Z,98.00
2019-05-19T09:09:32.978Z,97.80
2019-05-19T09:12:01.540Z,97.60
2019-05-19T09:14:30.073Z,97.50
2019-05-19T09:16:58.703Z,96.50
2019-05-19T09:19:27.317Z,96.50
2019-05-19T09:21:55.916Z,96.80
2019-05-19T09:24:30.383Z,95.90
2019-05-19T09:26:54.605Z,94.80
2019-05-19T09:29:23.149Z,93.90
2019-05-19T09:31:51.730Z,94.00
2019-05-19T09:34:20.254Z,95.70
2019-05-19T09:36:48.891Z,94.90
2019-05-19T09:39:17.431Z,95.00
2019-05-19T09:41:45.980Z,96.00
2019-05-19T09:44:14.588Z,97.50
2019-05-19T09:46:43.154Z,96.10
2019-05-19T09:49:25.455Z,96.00
2019-05-19T09:51:54.012Z,94.90
2019-05-19T09:54:22.561Z,94.20
2019-05-19T09:56:51.117Z,96.20
2019-05-19T09:59:19.650Z,93.10
2019-05-19T10:01:48.234Z,94.60
2019-05-19T10:04:16.817Z,96.00
2019-05-19T10:06:45.537Z,96.30
2019-05-19T10:09:21.643Z,95.90
2019-05-19T10:12:07.580Z,94.00
2019-05-19T10:14:36.180Z,93.60
2019-05-19T10:17:04.891Z,92.50
2019-05-19T10:19:33.664Z,94.20
2019-05-19T10:22:02.361Z,91.80
2019-05-19T10:24:30.969Z,91.70
2019-05-19T10:26:59.591Z,88.40
2019-05-19T10:29:28.234Z,88.20
2019-05-19T10:31:56.968Z,90.40
2019-05-19T10:34:25.507Z,90.50
2019-05-19T10:36:54.305Z,87.00
2019-05-19T10:39:22.847Z,88.00
2019-05-19T10:41:51.473Z,85.00
2019-05-19T10:44:20.230Z,80.10
2019-05-19T10:46:50.512Z,81.90
2019-05-19T10:49:19.108Z,79.80
2019-05-19T10:51:47.736Z,83.30
2019-05-19T10:54:16.413Z,83.30
2019-05-19T10:56:45.031Z,79.90
2019-05-19T10:59:13.716Z,80.70
2019-05-19T11:01:42.343Z,86.60
2019-05-19T11:04:10.886Z,88.90
2019-05-19T11:06:39.453Z,76.30
2019-05-19T11:09:08.839Z,80.30
2019-05-19T11:11:37.467Z,81.00
2019-05-19T11:14:06.141Z,80.50
2019-05-19T11:16:34.844Z,74.00
2019-05-19T11:19:03.443Z,74.50
2019-05-19T11:21:32.091Z,75.90
2019-05-19T11:24:00.693Z,75.90
2019-05-19T11:26:29.392Z,73.50
2019-05-19T11:28:58.007Z,76.10
2019-05-19T11:31:29.448Z,78.60
2019-05-19T11:33:58.045Z,80.70
2019-05-19T11:36:28.189Z,79.90
2019-05-19T11:38:56.722Z,77.30
2019-05-19T11:41:25.283Z,76.10
2019-05-19T11:43:53.883Z,77.40
2019-05-19T11:46:22.506Z,78.70
2019-05-19T11:48:51.117Z,76.70
2019-05-19T11:51:19.673Z,77.60
2019-05-19T11:53:48.216Z,74.10
2019-05-19T11:56:16.777Z,75.00
2019-05-19T11:58:45.307Z,76.30
2019-05-19T12:01:13.876Z,77.90
2019-05-19T12:03:42.475Z,78.10
2019-05-19T12:06:11.031Z,77.50
2019-05-19T12:08:39.570Z,76.70
2019-05-19T12:11:08.129Z,76.70
2019-05-19T12:13:37.189Z,75.00
2019-05-19T12:16:05.690Z,78.40
2019-05-19T12:18:34.203Z,77.30
2019-05-19T12:21:02.765Z,78.00
2019-05-19T12:23:31.303Z,77.70
2019-05-19T12:25:59.850Z,77.40
2019-05-19T12:28:28.404Z,77.70
2019-05-19T12:30:56.969Z,78.70
2019-05-19T12:33:25.568Z,75.40
2019-05-19T12:35:54.132Z,75.20
2019-05-19T12:38:22.738Z,73.50
2019-05-19T12:40:51.383Z,77.40
2019-05-19T12:43:19.981Z,74.20
2019-05-19T12:45:48.635Z,74.40
2019-05-19T12:48:17.156Z,74.10
2019-05-19T12:50:45.716Z,74.50
2019-05-19T12:53:14.255Z,74.00
2019-05-19T12:55:42.826Z,75.90
2019-05-19T12:58:11.355Z,76.90
2019-05-19T13:00:39.889Z,77.40
2019-05-19T13:03:08.441Z,76.80
2019-05-19T13:05:37.051Z,77.80
2019-05-19T13:08:05.686Z,77.30
2019-05-19T13:10:34.280Z,76.70
2019-05-19T13:13:02.837Z,77.80
2019-05-19T13:15:31.458Z,78.50
2019-05-19T13:17:59.995Z,79.90
2019-05-19T13:20:28.544Z,78.40
2019-05-19T13:22:57.146Z,77.70
2019-05-19T13:25:25.712Z,80.80
2019-05-19T13:27:54.247Z,82.20
2019-05-19T13:30:22.910Z,81.90
2019-05-19T13:32:51.554Z,79.90
2019-05-19T13:35:20.136Z,79.40
2019-05-19T13:37:48.668Z,82.80
2019-05-19T13:40:17.291Z,87.00
2019-05-19T13:42:45.892Z,81.50
2019-05-19T13:45:16.090Z,78.90
2019-05-19T13:47:44.623Z,77.60
2019-05-19T13:50:13.412Z,78.20
2019-05-19T13:52:41.959Z,76.80
2019-05-19T13:55:10.778Z,77.50
2019-05-19T13:57:39.368Z,74.20
2019-05-19T14:00:09.636Z,75.00
2019-05-19T14:02:38.306Z,75.50
2019-05-19T14:05:07.179Z,81.70
2019-05-19T14:07:35.742Z,83.90
2019-05-19T14:10:05.810Z,87.70
2019-05-19T14:12:34.360Z,91.60
2019-05-19T14:15:04.291Z,95.50
2019-05-19T14:17:33.021Z,98.30
2019-05-19T14:20:01.567Z,99.90
2019-05-19T14:22:30.204Z,99.90
2019-05-19T14:24:58.746Z,99.90
2019-05-19T14:27:30.731Z,99.90
2019-05-19T14:29:57.467Z,99.90
2019-05-19T14:32:26.029Z,99.90
2019-05-19T14:34:54.569Z,99.90
2019-05-19T14:37:23.127Z,99.90
2019-05-19T14:39:51.727Z,99.90
2019-05-19T14:42:38.235Z,99.90
2019-05-19T14:45:08.180Z,99.90
2019-05-19T14:47:36.767Z,99.90
2019-05-19T14:50:08.541Z,99.90
2019-05-19T14:52:37.088Z,99.90
2019-05-19T14:55:06.040Z,99.90
2019-05-19T14:57:44.376Z,99.90
2019-05-19T15:00:09.441Z,99.90
2019-05-19T15:02:37.971Z,99.90
2019-05-19T15:05:07.475Z,99.90
2019-05-19T15:07:36.013Z,99.90
2019-05-19T15:10:05.636Z,99.90
2019-05-19T15:12:34.154Z,99.90
2019-05-19T15:15:03.182Z,99.90
2019-05-19T15:17:31.715Z,99.90
2019-05-19T15:20:00.273Z,99.90
2019-05-19T15:22:28.885Z,99.90
2019-05-19T15:24:57.440Z,99.90
2019-05-19T15:27:25.975Z,99.90
2019-05-19T15:29:54.608Z,99.90
2019-05-19T15:32:23.132Z,99.90
2019-05-19T15:34:51.672Z,99.90
2019-05-19T15:37:20.255Z,99.90
2019-05-19T15:39:48.939Z,99.90
2019-05-19T15:42:17.564Z,99.90
2019-05-19T15:44:46.103Z,99.90
2019-05-19T15:47:14.749Z,99.90
2019-05-19T15:49:43.349Z,99.90
2019-05-19T15:52:11.913Z,99.90
2019-05-19T15:54:40.440Z,99.90
2019-05-19T15:57:08.996Z,99.90
2019-05-19T15:59:37.605Z,99.90
2019-05-19T16:02:06.232Z,99.90
2019-05-19T16:04:34.804Z,99.90
2019-05-19T16:07:03.404Z,99.90
2019-05-19T16:09:32.032Z,99.90
2019-05-19T16:12:00.636Z,99.90
2019-05-19T16:14:29.268Z,99.90
2019-05-19T16:16:57.809Z,99.90
2019-05-19T16:19:26.544Z,99.90
2019-05-19T16:21:55.096Z,99.90
2019-05-19T16:24:23.654Z,99.90
2019-05-19T16:26:52.316Z,99.90
2019-05-19T16:29:20.874Z,99.90
2019-05-19T16:31:49.483Z,99.90
2019-05-19T16:34:18.113Z,99.90
2019-05-19T16:36:46.664Z,99.90
2019-05-19T16:39:15.263Z,99.90
2019-05-19T16:41:43.829Z,99.90
2019-05-19T16:44:12.376Z,99.90
2019-05-19T16:46:40.936Z,99.90
2019-05-19T16:49:10.913Z,99.90
2019-05-19T16:51:39.472Z,99.90
2019-05-19T16:54:12.648Z,99.90
2019-05-19T16:56:41.284Z,99.90
2019-05-19T16:59:10.431Z,99.90
2019-05-19T17:01:40.262Z,99.90
2019-05-19T17:04:08.832Z,99.90
2019-05-19T17:06:37.439Z,99.90
2019-05-19T17:09:06.151Z,99.90
2019-05-19T17:11:34.683Z,99.90
2019-05-19T17:14:03.438Z,99.90
2019-05-19T17:16:32.063Z,99.90
2019-05-19T17:19:00.646Z,99.90
2019-05-19T17:21:29.197Z,99.90
2019-05-19T17:23:57.751Z,99.90
2019-05-19T17:26:26.364Z,99.90
2019-05-19T17:29:00.653Z,99.90
2019-05-19T17:31:25.836Z,99.90
2019-05-19T17:33:54.384Z,99.90
2019-05-19T17:36:22.939Z,99.90
2019-05-19T17:38:51.472Z,99.90
2019-05-19T17:41:20.057Z,99.90
2019-05-19T17:43:48.587Z,99.90
2019-05-19T17:46:17.210Z,99.90
2019-05-19T17:48:45.744Z,99.90
2019-05-19T17:51:14.303Z,99.90
2019-05-19T17:53:42.994Z,99.90
2019-05-19T17:56:11.959Z,99.90
2019-05-19T17:58:40.754Z,99.90
2019-05-19T18:01:09.333Z,99.90
2019-05-19T18:03:39.151Z,99.90
2019-05-19T18:06:07.752Z,99.90
2019-05-19T18:08:36.313Z,99.90
2019-05-19T18:11:05.690Z,99.90
2019-05-19T18:13:34.294Z,99.90
2019-05-19T18:16:04.749Z,99.90
2019-05-19T18:18:33.363Z,99.90
2019-05-19T18:21:01.916Z,99.90
2019-05-19T18:23:30.463Z,99.90
2019-05-19T18:25:59.020Z,99.90
2019-05-19T18:28:27.555Z,99.90
2019-05-19T18:30:56.121Z,99.90
2019-05-19T18:33:24.655Z,99.90
2019-05-19T18:35:53.207Z,99.90
2019-05-19T18:38:21.747Z,99.90
2019-05-19T18:40:50.307Z,99.90
2019-05-19T18:43:18.847Z,99.90
2019-05-19T18:45:47.422Z,99.90
2019-05-19T18:48:15.959Z,99.90
2019-05-19T18:50:44.600Z,99.90
2019-05-19T18:53:13.119Z,99.90
2019-05-19T18:55:41.728Z,99.90
2019-05-19T18:58:10.436Z,99.90
2019-05-19T19:00:39.423Z,99.90
2019-05-19T19:03:08.335Z,99.90
2019-05-19T19:05:37.022Z,99.90
2019-05-19T19:08:05.577Z,99.90
2019-05-19T19:10:35.012Z,99.90
2019-05-19T19:13:03.597Z,99.90
2019-05-19T19:15:32.120Z,99.90
2019-05-19T19:18:00.735Z,99.90
2019-05-19T19:20:29.360Z,99.90
2019-05-19T19:22:57.901Z,99.90
2019-05-19T19:25:26.458Z,99.90
2019-05-19T19:27:55.001Z,99.90
2019-05-19T19:30:26.474Z,99.90
2019-05-19T19:32:53.805Z,99.90
2019-05-19T19:35:22.466Z,99.90
2019-05-19T19:37:50.978Z,99.90
2019-05-19T19:40:30.759Z,99.90
2019-05-19T19:43:00.933Z,99.90
2019-05-19T19:45:29.770Z,99.90
2019-05-19T19:47:58.400Z,99.90
2019-05-19T19:50:27.026Z,99.90
2019-05-19T19:52:55.639Z,99.90
2019-05-19T19:55:24.247Z,99.90
2019-05-19T19:57:52.896Z,99.90
2019-05-19T20:00:39.202Z,99.90
2019-05-19T20:03:07.943Z,99.90
2019-05-19T20:05:36.552Z,99.90
2019-05-19T20:08:06.369Z,99.90
2019-05-19T20:10:36.334Z,99.90
2019-05-19T20:13:05.624Z,99.90
2019-05-19T20:15:34.716Z,99.90
2019-05-19T20:18:03.328Z,99.90
2019-05-19T20:20:32.035Z,99.90
2019-05-19T20:23:00.659Z,99.90
2019-05-19T20:25:29.273Z,99.90
2019-05-19T20:27:57.976Z,99.90
2019-05-19T20:30:35.234Z,99.90
2019-05-19T20:32:56.794Z,99.90
2019-05-19T20:35:25.332Z,99.90
2019-05-19T20:37:53.884Z,99.90
2019-05-19T20:40:22.444Z,99.90
2019-05-19T20:42:51.093Z,99.90
2019-05-19T20:45:19.626Z,99.90
2019-05-19T20:47:48.167Z,99.90
2019-05-19T20:50:16.830Z,99.90
2019-05-19T20:52:45.471Z,99.90
2019-05-19T20:55:14.141Z,99.90
2019-05-19T20:57:42.698Z,99.90
2019-05-19T21:00:11.783Z,99.90
2019-05-19T21:02:40.408Z,99.90
2019-05-19T21:05:09.119Z,99.90
2019-05-19T21:07:37.676Z,99.90
2019-05-19T21:10:07.360Z,99.90
2019-05-19T21:12:35.991Z,99.90
2019-05-19T21:15:05.663Z,99.90
2019-05-19T21:17:34.531Z,99.90
2019-05-19T21:20:04.032Z,99.90
2019-05-19T21:22:32.538Z,99.90
2019-05-19T21:25:01.108Z,99.90
2019-05-19T21:27:29.703Z,99.90
2019-05-19T21:29:58.274Z,99.90
2019-05-19T21:32:26.946Z,99.90
2019-05-19T21:34:55.550Z,99.90
2019-05-19T21:37:24.128Z,99.90
2019-05-19T21:39:52.659Z,99.90
2019-05-19T21:42:21.316Z,99.90
2019-05-19T21:44:49.855Z,99.90
2019-05-19T21:47:18.419Z,99.90
2019-05-19T21:49:46.947Z,99.90
2019-05-19T21:52:15.504Z,99.90
2019-05-19T21:54:44.043Z,99.90
2019-05-19T21:57:12.644Z,99.90
2019-05-19T21:59:41.211Z,99.90
2019-05-19T22:02:09.967Z,99.90
2019-05-19T22:04:38.528Z,99.90
2019-05-19T22:07:08.779Z,99.90
2019-05-19T22:09:37.400Z,99.90
2019-05-19T22:12:05.999Z,99.90
2019-05-19T22:14:34.654Z,99.90
2019-05-19T22:17:04.816Z,99.90
2019-05-19T22:19:33.385Z,99.90
2019-05-19T22:22:02.015Z,99.90
2019-05-19T22:24:30.543Z,99.90
2019-05-19T22:26:59.124Z,99.90
2019-05-19T22:29:27.662Z,99.90
2019-05-19T22:31:56.221Z,99.90
2019-05-19T22:34:24.761Z,99.90
2019-05-19T22:36:53.392Z,99.90
2019-05-19T22:39:22.004Z,99.90
2019-05-19T22:41:50.644Z,99.90
2019-05-19T22:44:20.295Z,99.90
2019-05-19T22:46:49.019Z,99.90
2019-05-19T22:49:17.560Z,99.90
2019-05-19T22:51:46.281Z,99.90
2019-05-19T22:54:14.800Z,99.90
2019-05-19T22:56:43.355Z,99.90
2019-05-19T22:59:19.429Z,99.90
2019-05-19T23:01:51.283Z,99.90
2019-05-19T23:04:12.364Z,99.90
2019-05-19T23:06:40.998Z,99.90
2019-05-19T23:09:09.641Z,99.90
2019-05-19T23:11:38.217Z,99.90
2019-05-19T23:14:06.833Z,99.90
2019-05-19T23:16:35.509Z,99.90
2019-05-19T23:19:04.039Z,99.90
2019-05-19T23:21:34.503Z,99.90
2019-05-19T23:24:03.034Z,99.90
2019-05-19T23:26:31.735Z,99.90
2019-05-19T23:29:00.264Z,99.90
2019-05-19T23:31:28.828Z,99.90
2019-05-19T23:33:57.443Z,99.90
2019-05-19T23:36:25.969Z,99.90
2019-05-19T23:38:54.524Z,99.90
2019-05-19T23:41:22.997Z,99.90
2019-05-19T23:43:51.542Z,99.90
2019-05-19T23:46:20.024Z,99.90
2019-05-19T23:48:48.587Z,99.90
2019-05-19T23:51:17.194Z,99.90
2019-05-19T23:53:45.765Z,99.90
2019-05-19T23:56:14.362Z,99.90
2019-05-19T23:58:42.994Z,99.90
